sensor_id;sensor_type;location;lat;lon;timestamp;temperature;humidity
22161;DHT22;49035;48.812;11.762;2023-04-25T00:02:25;5.50;99.90
22161;DHT22;49035;48.812;11.762;2023-04-25T00:04:51;5.40;99.90
22161;DHT22;49035;48.812;11.762;2023-04-25T00:07:17;5.40;99.90
22161;DHT22;49035;48.812;11.762;2023-04-25T00:09:43;5.30;99.90
22161;DHT22;49035;48.812;11.762;2023-04-25T00:12:08;5.20;99.90
22161;DHT22;49035;48.812;11.762;2023-04-25T00:14:34;5.10;99.90
22161;DHT22;49035;48.812;11.762;2023-04-25T00:17:01;4.90;99.90
22161;DHT22;49035;48.812;11.762;2023-04-25T00:19:26;4.80;99.90
22161;DHT22;49035;48.812;11.762;2023-04-25T00:21:54;4.80;99.90
22161;DHT22;49035;48.812;11.762;2023-04-25T00:24:20;4.70;99.90
22161;DHT22;49035;48.812;11.762;2023-04-25T00:26:45;4.60;99.90
22161;DHT22;49035;48.812;11.762;2023-04-25T00:29:11;4.60;99.90
22161;DHT22;49035;48.812;11.762;2023-04-25T00:31:36;4.60;99.90
22161;DHT22;49035;48.812;11.762;2023-04-25T00:34:02;4.70;99.90
22161;DHT22;49035;48.812;11.762;2023-04-25T00:36:28;4.70;99.90
22161;DHT22;49035;48.812;11.762;2023-04-25T00:38:53;4.80;99.90
22161;DHT22;49035;48.812;11.762;2023-04-25T00:41:20;4.80;99.90
22161;DHT22;49035;48.812;11.762;2023-04-25T00:43:47;4.90;99.90
22161;DHT22;49035;48.812;11.762;2023-04-25T00:46:13;5.00;99.90
22161;DHT22;49035;48.812;11.762;2023-04-25T00:48:38;5.10;99.90
22161;DHT22;49035;48.812;11.762;2023-04-25T00:51:04;5.20;99.90
22161;DHT22;49035;48.812;11.762;2023-04-25T00:53:30;5.10;99.90
22161;DHT22;49035;48.812;11.762;2023-04-25T00:55:57;4.90;99.90
22161;DHT22;49035;48.812;11.762;2023-04-25T00:58:24;4.80;99.90
22161;DHT22;49035;48.812;11.762;2023-04-25T01:00:51;4.60;99.90
22161;DHT22;49035;48.812;11.762;2023-04-25T01:03:20;4.50;99.90
22161;DHT22;49035;48.812;11.762;2023-04-25T01:05:46;4.40;99.90
22161;DHT22;49035;48.812;11.762;2023-04-25T01:08:13;4.40;99.90
22161;DHT22;49035;48.812;11.762;2023-04-25T01:10:38;4.30;99.90
22161;DHT22;49035;48.812;11.762;2023-04-25T01:13:04;4.20;99.90
22161;DHT22;49035;48.812;11.762;2023-04-25T01:15:30;4.20;99.90
22161;DHT22;49035;48.812;11.762;2023-04-25T01:17:56;4.20;99.90
22161;DHT22;49035;48.812;11.762;2023-04-25T01:20:23;4.10;99.90
22161;DHT22;49035;48.812;11.762;2023-04-25T01:22:50;4.10;99.90
22161;DHT22;49035;48.812;11.762;2023-04-25T01:25:16;4.10;99.90
22161;DHT22;49035;48.812;11.762;2023-04-25T01:27:42;4.10;99.90
22161;DHT22;49035;48.812;11.762;2023-04-25T01:30:09;4.10;99.90
22161;DHT22;49035;48.812;11.762;2023-04-25T01:32:35;4.20;99.90
22161;DHT22;49035;48.812;11.762;2023-04-25T01:35:08;4.30;99.90
22161;DHT22;49035;48.812;11.762;2023-04-25T01:37:39;4.40;99.90
22161;DHT22;49035;48.812;11.762;2023-04-25T01:40:06;4.50;99.90
22161;DHT22;49035;48.812;11.762;2023-04-25T01:42:33;4.60;99.90
22161;DHT22;49035;48.812;11.762;2023-04-25T01:44:59;4.70;99.90
22161;DHT22;49035;48.812;11.762;2023-04-25T01:47:24;4.70;99.90
22161;DHT22;49035;48.812;11.762;2023-04-25T01:49:50;4.80;99.90
22161;DHT22;49035;48.812;11.762;2023-04-25T01:52:16;4.90;99.90
22161;DHT22;49035;48.812;11.762;2023-04-25T01:54:41;4.90;99.90
22161;DHT22;49035;48.812;11.762;2023-04-25T01:57:10;5.00;99.90
22161;DHT22;49035;48.812;11.762;2023-04-25T01:59:36;5.00;99.90
22161;DHT22;49035;48.812;11.762;2023-04-25T02:02:02;5.10;99.90
22161;DHT22;49035;48.812;11.762;2023-04-25T02:04:29;5.10;99.90
22161;DHT22;49035;48.812;11.762;2023-04-25T02:06:55;5.10;99.90
22161;DHT22;49035;48.812;11.762;2023-04-25T02:09:21;5.20;99.90
22161;DHT22;49035;48.812;11.762;2023-04-25T02:11:46;5.20;99.90
22161;DHT22;49035;48.812;11.762;2023-04-25T02:14:12;5.30;99.90
22161;DHT22;49035;48.812;11.762;2023-04-25T02:16:38;5.30;99.90
22161;DHT22;49035;48.812;11.762;2023-04-25T02:19:05;5.30;99.90
22161;DHT22;49035;48.812;11.762;2023-04-25T02:21:31;5.20;99.90
22161;DHT22;49035;48.812;11.762;2023-04-25T02:23:57;5.20;99.90
22161;DHT22;49035;48.812;11.762;2023-04-25T02:26:23;5.10;99.90
22161;DHT22;49035;48.812;11.762;2023-04-25T02:28:49;5.20;99.90
22161;DHT22;49035;48.812;11.762;2023-04-25T02:31:15;5.20;99.90
22161;DHT22;49035;48.812;11.762;2023-04-25T02:33:41;5.20;99.90
22161;DHT22;49035;48.812;11.762;2023-04-25T02:36:06;5.30;99.90
22161;DHT22;49035;48.812;11.762;2023-04-25T02:38:32;5.40;99.90
22161;DHT22;49035;48.812;11.762;2023-04-25T02:40:58;5.40;99.90
22161;DHT22;49035;48.812;11.762;2023-04-25T02:43:23;5.40;99.90
22161;DHT22;49035;48.812;11.762;2023-04-25T02:45:49;5.40;99.90
22161;DHT22;49035;48.812;11.762;2023-04-25T02:48:14;5.40;99.90
22161;DHT22;49035;48.812;11.762;2023-04-25T02:50:40;5.30;99.90
22161;DHT22;49035;48.812;11.762;2023-04-25T02:53:05;5.30;99.90
22161;DHT22;49035;48.812;11.762;2023-04-25T02:55:31;5.30;99.90
22161;DHT22;49035;48.812;11.762;2023-04-25T02:57:57;5.30;99.90
22161;DHT22;49035;48.812;11.762;2023-04-25T03:00:22;5.30;99.90
22161;DHT22;49035;48.812;11.762;2023-04-25T03:02:48;5.40;99.90
22161;DHT22;49035;48.812;11.762;2023-04-25T03:05:14;5.40;99.90
22161;DHT22;49035;48.812;11.762;2023-04-25T03:07:39;5.50;99.90
22161;DHT22;49035;48.812;11.762;2023-04-25T03:10:08;5.60;99.90
22161;DHT22;49035;48.812;11.762;2023-04-25T03:12:34;5.70;99.90
22161;DHT22;49035;48.812;11.762;2023-04-25T03:14:59;5.70;99.90
22161;DHT22;49035;48.812;11.762;2023-04-25T03:17:25;5.60;99.90
22161;DHT22;49035;48.812;11.762;2023-04-25T03:19:50;5.60;99.90
22161;DHT22;49035;48.812;11.762;2023-04-25T03:22:16;5.60;99.90
22161;DHT22;49035;48.812;11.762;2023-04-25T03:24:41;5.50;99.90
22161;DHT22;49035;48.812;11.762;2023-04-25T03:27:07;5.40;99.90
22161;DHT22;49035;48.812;11.762;2023-04-25T03:29:33;5.40;99.90
22161;DHT22;49035;48.812;11.762;2023-04-25T03:31:58;5.30;99.90
22161;DHT22;49035;48.812;11.762;2023-04-25T03:34:24;5.30;99.90
22161;DHT22;49035;48.812;11.762;2023-04-25T03:36:51;5.20;99.90
22161;DHT22;49035;48.812;11.762;2023-04-25T03:39:16;5.20;99.90
22161;DHT22;49035;48.812;11.762;2023-04-25T03:41:42;5.20;99.90
22161;DHT22;49035;48.812;11.762;2023-04-25T03:44:08;5.30;99.90
22161;DHT22;49035;48.812;11.762;2023-04-25T03:46:33;5.30;99.90
22161;DHT22;49035;48.812;11.762;2023-04-25T03:48:59;5.30;99.90
22161;DHT22;49035;48.812;11.762;2023-04-25T03:51:25;5.30;99.90
22161;DHT22;49035;48.812;11.762;2023-04-25T03:53:51;5.40;99.90
22161;DHT22;49035;48.812;11.762;2023-04-25T03:56:17;5.60;99.90
22161;DHT22;49035;48.812;11.762;2023-04-25T03:58:42;5.70;99.90
22161;DHT22;49035;48.812;11.762;2023-04-25T04:01:08;5.70;99.90
22161;DHT22;49035;48.812;11.762;2023-04-25T04:03:34;5.60;99.90
22161;DHT22;49035;48.812;11.762;2023-04-25T04:06:02;5.60;99.90
22161;DHT22;49035;48.812;11.762;2023-04-25T04:08:29;5.40;99.90
22161;DHT22;49035;48.812;11.762;2023-04-25T04:10:56;5.40;99.90
22161;DHT22;49035;48.812;11.762;2023-04-25T04:13:22;5.40;99.90
22161;DHT22;49035;48.812;11.762;2023-04-25T04:15:47;5.40;99.90
22161;DHT22;49035;48.812;11.762;2023-04-25T04:18:13;5.40;99.90
22161;DHT22;49035;48.812;11.762;2023-04-25T04:20:38;5.40;99.90
22161;DHT22;49035;48.812;11.762;2023-04-25T04:23:07;5.50;99.90
22161;DHT22;49035;48.812;11.762;2023-04-25T04:25:36;5.50;99.90
22161;DHT22;49035;48.812;11.762;2023-04-25T04:28:02;5.50;99.90
22161;DHT22;49035;48.812;11.762;2023-04-25T04:30:28;5.50;99.90
22161;DHT22;49035;48.812;11.762;2023-04-25T04:32:55;5.50;99.90
22161;DHT22;49035;48.812;11.762;2023-04-25T04:35:24;5.60;99.90
22161;DHT22;49035;48.812;11.762;2023-04-25T04:38:06;5.60;99.90
22161;DHT22;49035;48.812;11.762;2023-04-25T04:40:32;5.60;99.90
22161;DHT22;49035;48.812;11.762;2023-04-25T04:43:07;5.50;99.90
22161;DHT22;49035;48.812;11.762;2023-04-25T04:45:35;5.60;99.90
22161;DHT22;49035;48.812;11.762;2023-04-25T04:48:06;5.60;99.90
22161;DHT22;49035;48.812;11.762;2023-04-25T04:50:32;5.60;99.90
22161;DHT22;49035;48.812;11.762;2023-04-25T04:53:02;5.50;99.90
22161;DHT22;49035;48.812;11.762;2023-04-25T04:55:28;5.60;99.90
22161;DHT22;49035;48.812;11.762;2023-04-25T04:57:57;5.60;99.90
22161;DHT22;49035;48.812;11.762;2023-04-25T05:00:29;5.70;99.90
22161;DHT22;49035;48.812;11.762;2023-04-25T05:02:58;5.70;99.90
22161;DHT22;49035;48.812;11.762;2023-04-25T05:05:24;5.80;99.90
22161;DHT22;49035;48.812;11.762;2023-04-25T05:07:51;5.90;99.90
22161;DHT22;49035;48.812;11.762;2023-04-25T05:10:19;6.00;99.90
22161;DHT22;49035;48.812;11.762;2023-04-25T05:12:53;6.20;99.90
22161;DHT22;49035;48.812;11.762;2023-04-25T05:15:25;6.40;99.90
22161;DHT22;49035;48.812;11.762;2023-04-25T05:17:54;6.70;99.90
22161;DHT22;49035;48.812;11.762;2023-04-25T05:20:20;7.20;99.90
22161;DHT22;49035;48.812;11.762;2023-04-25T05:23:11;7.60;99.90
22161;DHT22;49035;48.812;11.762;2023-04-25T05:25:45;8.10;99.90
22161;DHT22;49035;48.812;11.762;2023-04-25T05:28:12;8.30;99.90
22161;DHT22;49035;48.812;11.762;2023-04-25T05:30:38;8.40;99.90
22161;DHT22;49035;48.812;11.762;2023-04-25T05:33:03;8.70;99.90
22161;DHT22;49035;48.812;11.762;2023-04-25T05:35:29;8.90;99.90
22161;DHT22;49035;48.812;11.762;2023-04-25T05:37:55;9.10;99.90
22161;DHT22;49035;48.812;11.762;2023-04-25T05:40:20;9.50;99.90
22161;DHT22;49035;48.812;11.762;2023-04-25T05:42:46;10.20;99.90
22161;DHT22;49035;48.812;11.762;2023-04-25T05:45:12;10.70;99.90
22161;DHT22;49035;48.812;11.762;2023-04-25T05:47:38;11.00;99.90
22161;DHT22;49035;48.812;11.762;2023-04-25T05:50:04;10.80;99.90
22161;DHT22;49035;48.812;11.762;2023-04-25T05:52:29;10.60;99.90
22161;DHT22;49035;48.812;11.762;2023-04-25T05:54:55;10.70;99.90
22161;DHT22;49035;48.812;11.762;2023-04-25T05:57:26;10.80;99.90
22161;DHT22;49035;48.812;11.762;2023-04-25T05:59:52;10.80;99.90
22161;DHT22;49035;48.812;11.762;2023-04-25T06:02:19;11.00;99.90
22161;DHT22;49035;48.812;11.762;2023-04-25T06:04:46;11.20;99.90
22161;DHT22;49035;48.812;11.762;2023-04-25T06:07:11;11.20;99.90
22161;DHT22;49035;48.812;11.762;2023-04-25T06:09:37;11.50;99.90
22161;DHT22;49035;48.812;11.762;2023-04-25T06:12:05;11.50;99.90
22161;DHT22;49035;48.812;11.762;2023-04-25T06:14:31;11.30;99.90
22161;DHT22;49035;48.812;11.762;2023-04-25T06:16:56;11.00;99.90
22161;DHT22;49035;48.812;11.762;2023-04-25T06:19:22;10.80;99.90
22161;DHT22;49035;48.812;11.762;2023-04-25T06:21:47;10.70;99.90
22161;DHT22;49035;48.812;11.762;2023-04-25T06:24:13;11.20;99.90
22161;DHT22;49035;48.812;11.762;2023-04-25T06:26:38;11.40;99.90
22161;DHT22;49035;48.812;11.762;2023-04-25T06:29:04;11.90;99.90
22161;DHT22;49035;48.812;11.762;2023-04-25T06:31:30;11.90;99.90
22161;DHT22;49035;48.812;11.762;2023-04-25T06:33:57;12.00;99.90
22161;DHT22;49035;48.812;11.762;2023-04-25T06:36:23;11.80;99.90
22161;DHT22;49035;48.812;11.762;2023-04-25T06:38:53;11.60;99.90
22161;DHT22;49035;48.812;11.762;2023-04-25T06:41:20;11.50;99.90
22161;DHT22;49035;48.812;11.762;2023-04-25T06:43:46;11.30;99.90
22161;DHT22;49035;48.812;11.762;2023-04-25T06:46:11;11.30;99.90
22161;DHT22;49035;48.812;11.762;2023-04-25T06:48:37;11.10;99.90
22161;DHT22;49035;48.812;11.762;2023-04-25T06:51:03;10.80;99.90
22161;DHT22;49035;48.812;11.762;2023-04-25T06:53:28;10.60;99.90
22161;DHT22;49035;48.812;11.762;2023-04-25T06:55:54;10.60;99.90
22161;DHT22;49035;48.812;11.762;2023-04-25T06:58:19;11.20;99.90
22161;DHT22;49035;48.812;11.762;2023-04-25T07:00:45;11.50;99.90
22161;DHT22;49035;48.812;11.762;2023-04-25T07:03:11;11.70;99.90
22161;DHT22;49035;48.812;11.762;2023-04-25T07:05:37;11.90;99.90
22161;DHT22;49035;48.812;11.762;2023-04-25T07:08:02;12.00;99.90
22161;DHT22;49035;48.812;11.762;2023-04-25T07:10:28;12.00;99.90
22161;DHT22;49035;48.812;11.762;2023-04-25T07:12:54;12.20;99.90
22161;DHT22;49035;48.812;11.762;2023-04-25T07:15:19;12.60;99.90
22161;DHT22;49035;48.812;11.762;2023-04-25T07:17:45;13.00;99.90
22161;DHT22;49035;48.812;11.762;2023-04-25T07:20:11;12.90;99.90
22161;DHT22;49035;48.812;11.762;2023-04-25T07:22:37;12.40;99.90
22161;DHT22;49035;48.812;11.762;2023-04-25T07:25:03;12.40;99.90
22161;DHT22;49035;48.812;11.762;2023-04-25T07:27:29;12.60;99.90
22161;DHT22;49035;48.812;11.762;2023-04-25T07:29:55;12.60;99.90
22161;DHT22;49035;48.812;11.762;2023-04-25T07:32:21;11.80;99.90
22161;DHT22;49035;48.812;11.762;2023-04-25T07:34:46;11.70;99.90
22161;DHT22;49035;48.812;11.762;2023-04-25T07:37:13;11.50;99.90
22161;DHT22;49035;48.812;11.762;2023-04-25T07:39:39;11.60;99.90
22161;DHT22;49035;48.812;11.762;2023-04-25T07:42:05;11.80;99.90
22161;DHT22;49035;48.812;11.762;2023-04-25T07:44:34;12.00;99.90
22161;DHT22;49035;48.812;11.762;2023-04-25T07:47:04;12.30;99.90
22161;DHT22;49035;48.812;11.762;2023-04-25T07:49:35;13.00;99.90
22161;DHT22;49035;48.812;11.762;2023-04-25T07:52:02;13.40;99.90
22161;DHT22;49035;48.812;11.762;2023-04-25T07:54:28;13.30;99.90
22161;DHT22;49035;48.812;11.762;2023-04-25T07:56:53;13.00;98.90
22161;DHT22;49035;48.812;11.762;2023-04-25T07:59:19;13.20;99.90
22161;DHT22;49035;48.812;11.762;2023-04-25T08:01:45;13.60;96.90
22161;DHT22;49035;48.812;11.762;2023-04-25T08:04:10;13.90;97.70
22161;DHT22;49035;48.812;11.762;2023-04-25T08:06:36;14.60;97.50
22161;DHT22;49035;48.812;11.762;2023-04-25T08:09:02;14.70;92.40
22161;DHT22;49035;48.812;11.762;2023-04-25T08:11:28;14.50;95.80
22161;DHT22;49035;48.812;11.762;2023-04-25T08:13:54;14.40;92.20
22161;DHT22;49035;48.812;11.762;2023-04-25T08:16:19;14.30;95.10
22161;DHT22;49035;48.812;11.762;2023-04-25T08:18:45;14.60;94.00
22161;DHT22;49035;48.812;11.762;2023-04-25T08:21:10;14.80;93.70
22161;DHT22;49035;48.812;11.762;2023-04-25T08:23:37;15.10;92.70
22161;DHT22;49035;48.812;11.762;2023-04-25T08:26:03;15.30;93.50
22161;DHT22;49035;48.812;11.762;2023-04-25T08:28:30;15.60;91.70
22161;DHT22;49035;48.812;11.762;2023-04-25T08:30:55;16.20;91.80
22161;DHT22;49035;48.812;11.762;2023-04-25T08:33:21;16.00;89.60
22161;DHT22;49035;48.812;11.762;2023-04-25T08:35:46;15.70;88.10
22161;DHT22;49035;48.812;11.762;2023-04-25T08:38:12;15.40;90.10
22161;DHT22;49035;48.812;11.762;2023-04-25T08:40:39;14.80;90.30
22161;DHT22;49035;48.812;11.762;2023-04-25T08:43:06;14.50;91.60
22161;DHT22;49035;48.812;11.762;2023-04-25T08:45:39;14.10;92.10
22161;DHT22;49035;48.812;11.762;2023-04-25T08:48:10;13.90;90.60
22161;DHT22;49035;48.812;11.762;2023-04-25T08:50:56;13.70;93.70
22161;DHT22;49035;48.812;11.762;2023-04-25T08:53:25;14.00;93.40
22161;DHT22;49035;48.812;11.762;2023-04-25T08:55:51;14.20;93.30
22161;DHT22;49035;48.812;11.762;2023-04-25T08:58:18;14.30;90.90
22161;DHT22;49035;48.812;11.762;2023-04-25T09:00:46;14.20;92.60
22161;DHT22;49035;48.812;11.762;2023-04-25T09:03:11;14.60;94.80
22161;DHT22;49035;48.812;11.762;2023-04-25T09:05:37;14.10;90.00
22161;DHT22;49035;48.812;11.762;2023-04-25T09:08:03;13.50;91.10
22161;DHT22;49035;48.812;11.762;2023-04-25T09:10:28;12.70;92.20
22161;DHT22;49035;48.812;11.762;2023-04-25T09:13:08;12.70;92.20
22161;DHT22;49035;48.812;11.762;2023-04-25T09:15:50;13.00;92.90
22161;DHT22;49035;48.812;11.762;2023-04-25T09:20:49;13.00;92.20
22161;DHT22;49035;48.812;11.762;2023-04-25T09:23:15;12.90;91.60
22161;DHT22;49035;48.812;11.762;2023-04-25T09:25:40;12.90;91.70
22161;DHT22;49035;48.812;11.762;2023-04-25T09:28:08;12.70;91.80
22161;DHT22;49035;48.812;11.762;2023-04-25T09:30:36;12.90;94.30
22161;DHT22;49035;48.812;11.762;2023-04-25T09:33:06;13.20;94.20
22161;DHT22;49035;48.812;11.762;2023-04-25T09:35:40;13.50;92.70
22161;DHT22;49035;48.812;11.762;2023-04-25T09:38:11;13.30;94.80
22161;DHT22;49035;48.812;11.762;2023-04-25T09:40:41;12.80;93.30
22161;DHT22;49035;48.812;11.762;2023-04-25T09:43:25;11.60;94.90
22161;DHT22;49035;48.812;11.762;2023-04-25T09:45:53;10.60;98.10
22161;DHT22;49035;48.812;11.762;2023-04-25T09:48:22;9.60;99.90
22161;DHT22;49035;48.812;11.762;2023-04-25T09:53:29;8.50;99.90
22161;DHT22;49035;48.812;11.762;2023-04-25T09:55:55;8.50;99.90
22161;DHT22;49035;48.812;11.762;2023-04-25T09:58:24;8.40;99.90
22161;DHT22;49035;48.812;11.762;2023-04-25T10:00:51;8.40;99.90
22161;DHT22;49035;48.812;11.762;2023-04-25T10:03:17;8.40;99.90
22161;DHT22;49035;48.812;11.762;2023-04-25T10:05:47;8.40;99.90
22161;DHT22;49035;48.812;11.762;2023-04-25T10:08:13;8.70;99.90
22161;DHT22;49035;48.812;11.762;2023-04-25T10:10:40;8.70;99.90
22161;DHT22;49035;48.812;11.762;2023-04-25T10:13:06;8.90;99.90
22161;DHT22;49035;48.812;11.762;2023-04-25T10:15:35;9.30;99.90
22161;DHT22;49035;48.812;11.762;2023-04-25T10:18:01;9.40;99.90
22161;DHT22;49035;48.812;11.762;2023-04-25T10:20:28;9.70;99.90
22161;DHT22;49035;48.812;11.762;2023-04-25T10:22:56;10.20;99.90
22161;DHT22;49035;48.812;11.762;2023-04-25T10:25:23;11.00;99.90
22161;DHT22;49035;48.812;11.762;2023-04-25T10:27:53;11.40;99.90
22161;DHT22;49035;48.812;11.762;2023-04-25T10:30:19;11.80;99.90
22161;DHT22;49035;48.812;11.762;2023-04-25T10:32:45;11.10;99.90
22161;DHT22;49035;48.812;11.762;2023-04-25T10:35:17;10.50;99.90
22161;DHT22;49035;48.812;11.762;2023-04-25T10:38:05;10.10;99.90
22161;DHT22;49035;48.812;11.762;2023-04-25T10:40:32;10.40;99.90
22161;DHT22;49035;48.812;11.762;2023-04-25T10:46:22;10.30;99.90
22161;DHT22;49035;48.812;11.762;2023-04-25T10:48:55;10.40;99.90
22161;DHT22;49035;48.812;11.762;2023-04-25T10:51:24;10.70;99.90
22161;DHT22;49035;48.812;11.762;2023-04-25T10:54:07;11.10;99.90
22161;DHT22;49035;48.812;11.762;2023-04-25T10:56:38;11.50;99.90
22161;DHT22;49035;48.812;11.762;2023-04-25T10:59:16;12.10;99.90
22161;DHT22;49035;48.812;11.762;2023-04-25T11:01:45;12.30;99.90
22161;DHT22;49035;48.812;11.762;2023-04-25T11:04:31;12.20;99.90
22161;DHT22;49035;48.812;11.762;2023-04-25T11:07:09;11.90;99.90
22161;DHT22;49035;48.812;11.762;2023-04-25T11:09:39;12.10;99.90
22161;DHT22;49035;48.812;11.762;2023-04-25T11:12:07;11.90;99.90
22161;DHT22;49035;48.812;11.762;2023-04-25T11:14:33;11.30;99.90
22161;DHT22;49035;48.812;11.762;2023-04-25T11:16:59;10.90;99.90
22161;DHT22;49035;48.812;11.762;2023-04-25T11:19:25;11.10;99.90
22161;DHT22;49035;48.812;11.762;2023-04-25T11:22:02;11.20;99.90
22161;DHT22;49035;48.812;11.762;2023-04-25T11:24:33;11.30;99.90
22161;DHT22;49035;48.812;11.762;2023-04-25T11:27:03;11.30;99.90
22161;DHT22;49035;48.812;11.762;2023-04-25T11:29:30;11.50;99.90
22161;DHT22;49035;48.812;11.762;2023-04-25T11:31:56;12.00;99.90
22161;DHT22;49035;48.812;11.762;2023-04-25T11:34:23;11.80;98.30
22161;DHT22;49035;48.812;11.762;2023-04-25T11:36:50;11.80;98.90
22161;DHT22;49035;48.812;11.762;2023-04-25T11:39:18;12.00;99.00
22161;DHT22;49035;48.812;11.762;2023-04-25T11:41:44;12.20;96.60
22161;DHT22;49035;48.812;11.762;2023-04-25T11:44:10;12.10;97.50
22161;DHT22;49035;48.812;11.762;2023-04-25T11:46:36;12.30;95.40
22161;DHT22;49035;48.812;11.762;2023-04-25T11:49:01;12.20;96.30
22161;DHT22;49035;48.812;11.762;2023-04-25T11:51:27;12.50;96.00
22161;DHT22;49035;48.812;11.762;2023-04-25T11:53:53;12.80;97.00
22161;DHT22;49035;48.812;11.762;2023-04-25T11:56:18;13.40;97.80
22161;DHT22;49035;48.812;11.762;2023-04-25T11:59:05;14.10;90.50
22161;DHT22;49035;48.812;11.762;2023-04-25T12:01:34;13.50;90.20
22161;DHT22;49035;48.812;11.762;2023-04-25T12:04:33;13.00;88.90
22161;DHT22;49035;48.812;11.762;2023-04-25T12:06:58;13.10;90.20
22161;DHT22;49035;48.812;11.762;2023-04-25T12:09:33;13.60;91.90
22161;DHT22;49035;48.812;11.762;2023-04-25T12:12:00;14.20;91.90
22161;DHT22;49035;48.812;11.762;2023-04-25T12:14:33;14.40;87.70
22161;DHT22;49035;48.812;11.762;2023-04-25T12:17:00;13.60;85.20
22161;DHT22;49035;48.812;11.762;2023-04-25T12:19:31;13.00;88.60
22161;DHT22;49035;48.812;11.762;2023-04-25T12:21:58;12.80;90.70
22161;DHT22;49035;48.812;11.762;2023-04-25T12:24:26;12.50;92.70
22161;DHT22;49035;48.812;11.762;2023-04-25T12:29:24;12.10;90.80
22161;DHT22;49035;48.812;11.762;2023-04-25T12:31:51;12.00;91.00
22161;DHT22;49035;48.812;11.762;2023-04-25T12:34:18;12.00;91.60
22161;DHT22;49035;48.812;11.762;2023-04-25T12:36:43;11.80;90.20
22161;DHT22;49035;48.812;11.762;2023-04-25T12:39:14;11.60;90.20
22161;DHT22;49035;48.812;11.762;2023-04-25T12:41:40;11.50;92.60
22161;DHT22;49035;48.812;11.762;2023-04-25T12:44:06;11.60;91.30
22161;DHT22;49035;48.812;11.762;2023-04-25T12:46:32;11.80;90.80
22161;DHT22;49035;48.812;11.762;2023-04-25T12:48:57;12.30;91.60
22161;DHT22;49035;48.812;11.762;2023-04-25T12:51:23;12.90;91.80
22161;DHT22;49035;48.812;11.762;2023-04-25T12:53:50;13.10;88.50
22161;DHT22;49035;48.812;11.762;2023-04-25T12:56:16;12.80;87.90
22161;DHT22;49035;48.812;11.762;2023-04-25T12:58:42;12.30;87.70
22161;DHT22;49035;48.812;11.762;2023-04-25T13:01:09;12.20;90.10
22161;DHT22;49035;48.812;11.762;2023-04-25T13:03:35;12.00;90.70
22161;DHT22;49035;48.812;11.762;2023-04-25T13:06:00;12.10;89.40
22161;DHT22;49035;48.812;11.762;2023-04-25T13:08:26;12.00;88.60
22161;DHT22;49035;48.812;11.762;2023-04-25T13:10:52;12.00;92.70
22161;DHT22;49035;48.812;11.762;2023-04-25T13:13:17;11.70;92.40
22161;DHT22;49035;48.812;11.762;2023-04-25T13:15:43;11.50;91.90
22161;DHT22;49035;48.812;11.762;2023-04-25T13:18:09;11.30;92.40
22161;DHT22;49035;48.812;11.762;2023-04-25T13:20:34;11.20;93.30
22161;DHT22;49035;48.812;11.762;2023-04-25T13:23:00;11.20;93.40
22161;DHT22;49035;48.812;11.762;2023-04-25T13:25:26;11.50;92.70
22161;DHT22;49035;48.812;11.762;2023-04-25T13:27:52;11.60;91.10
22161;DHT22;49035;48.812;11.762;2023-04-25T13:30:17;11.60;91.40
22161;DHT22;49035;48.812;11.762;2023-04-25T13:32:43;11.70;91.50
22161;DHT22;49035;48.812;11.762;2023-04-25T13:35:11;11.80;93.10
22161;DHT22;49035;48.812;11.762;2023-04-25T13:37:37;11.80;91.20
22161;DHT22;49035;48.812;11.762;2023-04-25T13:40:08;11.40;91.00
22161;DHT22;49035;48.812;11.762;2023-04-25T13:42:35;11.10;92.30
22161;DHT22;49035;48.812;11.762;2023-04-25T13:45:01;11.00;92.70
22161;DHT22;49035;48.812;11.762;2023-04-25T13:47:27;11.00;92.30
22161;DHT22;49035;48.812;11.762;2023-04-25T13:49:53;11.40;94.10
22161;DHT22;49035;48.812;11.762;2023-04-25T13:52:20;12.00;92.20
22161;DHT22;49035;48.812;11.762;2023-04-25T13:54:46;12.70;88.30
22161;DHT22;49035;48.812;11.762;2023-04-25T13:57:12;13.00;90.60
22161;DHT22;49035;48.812;11.762;2023-04-25T13:59:39;12.80;89.40
22161;DHT22;49035;48.812;11.762;2023-04-25T14:02:06;13.00;86.20
22161;DHT22;49035;48.812;11.762;2023-04-25T14:04:32;13.00;86.40
22161;DHT22;49035;48.812;11.762;2023-04-25T14:06:58;13.00;88.00
22161;DHT22;49035;48.812;11.762;2023-04-25T14:09:24;13.20;87.80
22161;DHT22;49035;48.812;11.762;2023-04-25T14:11:54;13.20;86.00
22161;DHT22;49035;48.812;11.762;2023-04-25T14:14:21;13.20;86.90
22161;DHT22;49035;48.812;11.762;2023-04-25T14:16:47;13.20;88.30
22161;DHT22;49035;48.812;11.762;2023-04-25T14:19:14;13.10;90.00
22161;DHT22;49035;48.812;11.762;2023-04-25T14:21:40;12.80;86.20
22161;DHT22;49035;48.812;11.762;2023-04-25T14:24:06;12.40;88.10
22161;DHT22;49035;48.812;11.762;2023-04-25T14:26:33;12.10;90.00
22161;DHT22;49035;48.812;11.762;2023-04-25T14:28:59;11.90;87.00
22161;DHT22;49035;48.812;11.762;2023-04-25T14:31:24;11.90;88.00
22161;DHT22;49035;48.812;11.762;2023-04-25T14:33:50;11.80;88.80
22161;DHT22;49035;48.812;11.762;2023-04-25T14:36:16;11.70;85.10
22161;DHT22;49035;48.812;11.762;2023-04-25T14:38:41;11.70;89.30
22161;DHT22;49035;48.812;11.762;2023-04-25T14:41:07;11.70;88.20
22161;DHT22;49035;48.812;11.762;2023-04-25T14:43:32;11.70;88.80
22161;DHT22;49035;48.812;11.762;2023-04-25T14:45:58;11.70;88.20
22161;DHT22;49035;48.812;11.762;2023-04-25T14:48:24;11.80;86.00
22161;DHT22;49035;48.812;11.762;2023-04-25T14:50:49;12.00;86.40
22161;DHT22;49035;48.812;11.762;2023-04-25T14:53:15;12.20;84.20
22161;DHT22;49035;48.812;11.762;2023-04-25T14:55:40;12.50;83.80
22161;DHT22;49035;48.812;11.762;2023-04-25T14:58:06;12.50;81.40
22161;DHT22;49035;48.812;11.762;2023-04-25T15:00:32;12.40;81.10
22161;DHT22;49035;48.812;11.762;2023-04-25T15:02:58;12.20;82.80
22161;DHT22;49035;48.812;11.762;2023-04-25T15:05:24;11.70;81.40
22161;DHT22;49035;48.812;11.762;2023-04-25T15:07:50;11.40;83.80
22161;DHT22;49035;48.812;11.762;2023-04-25T15:10:17;11.20;85.00
22161;DHT22;49035;48.812;11.762;2023-04-25T15:12:43;11.20;84.70
22161;DHT22;49035;48.812;11.762;2023-04-25T15:15:10;11.10;84.50
22161;DHT22;49035;48.812;11.762;2023-04-25T15:17:43;11.00;85.00
22161;DHT22;49035;48.812;11.762;2023-04-25T15:20:10;11.00;86.30
22161;DHT22;49035;48.812;11.762;2023-04-25T15:22:37;11.10;87.50
22161;DHT22;49035;48.812;11.762;2023-04-25T15:25:03;11.20;86.80
22161;DHT22;49035;48.812;11.762;2023-04-25T15:27:29;11.40;89.00
22161;DHT22;49035;48.812;11.762;2023-04-25T15:29:56;11.50;87.60
22161;DHT22;49035;48.812;11.762;2023-04-25T15:32:21;11.60;86.90
22161;DHT22;49035;48.812;11.762;2023-04-25T15:34:48;11.50;84.20